»·PEaware :: N1306C KPDX-KCLM

N1306C :: KPDX-KCLM

FLIGHT INFORMATION

Flight Status: Arrived
Operator: Privately registered:
United States
More flights under this callsign
Pilot: Mark S. (16827)
Aircraft: CESSNA 182 SKYLANE
(C182)
More flights by this aircraft type
Origin: KPDX Portland Intl
United States
Destination: KCLM Fairchild Intl
United States
More flights between these airports :: More routes between these airports
Route: +PTLD1 BTG V287 OLM V165 DIGGN JAWBN
File this flight plan on PilotEdge
Remarks:
Altitude:
(Current/Filed)
8,000ft
Speed:
(Current/Filed)
155kts
Departed: 05-Jan-20 01:45 PM
Arrived: 05-Jan-20 02:56 PM
Distance/Time
Traveled:
156nm/1:11
Distance/Time
To Go:
Arrived

Flight Plot

Page will automatically refresh every two minutes.

Flight plan parsing failed; only flown route is shown


Map Options




Map Legend


Flown Route
Filed Route
Departure Airport
Arrival Airport
Navaid (VOR, NDB)
Fix

Horizontal Profiles

Position Reports

Time Latitude Longitude Heading Altitude Ground
Speed
05-Jan-20 13:01 45.587109 -122.582683 209 28ft 0kts
05-Jan-20 13:02 45.587109 -122.582683 208 28ft 0kts
05-Jan-20 13:03 45.587109 -122.582683 208 28ft 0kts
05-Jan-20 13:04 45.587109 -122.582683 208 28ft 0kts
05-Jan-20 13:05 45.587109 -122.582683 208 28ft 0kts
05-Jan-20 13:06 45.587109 -122.582683 208 28ft 0kts
05-Jan-20 13:07 45.587109 -122.582683 208 28ft 0kts
05-Jan-20 13:08 45.587109 -122.582683 208 28ft 0kts
05-Jan-20 13:09 45.587094 -122.582695 208 28ft 1kts
05-Jan-20 13:10 45.588118 -122.582194 84 31ft 7kts
05-Jan-20 13:11 45.586771 -122.578300 121 30ft 13kts
05-Jan-20 13:12 45.584789 -122.573150 119 31ft 15kts
05-Jan-20 13:13 45.582743 -122.567743 85 34ft 14kts
05-Jan-20 13:14 45.582805 -122.567482 65 34ft 0kts
05-Jan-20 13:15 45.582805 -122.567482 64 34ft 0kts
05-Jan-20 13:16 45.582805 -122.567482 64 34ft 0kts
05-Jan-20 13:17 45.582805 -122.567482 64 34ft 0kts
05-Jan-20 13:18 45.582805 -122.567482 64 34ft 0kts
05-Jan-20 13:19 45.582602 -122.567621 257 34ft 6kts
05-Jan-20 13:20 45.582633 -122.567223 49 34ft 0kts
05-Jan-20 13:21 45.582633 -122.567223 49 34ft 0kts
05-Jan-20 13:22 45.582633 -122.567223 49 34ft 0kts
05-Jan-20 13:23 45.582633 -122.567223 49 34ft 0kts
05-Jan-20 13:24 45.582633 -122.567223 49 34ft 0kts
05-Jan-20 13:25 45.582633 -122.567223 49 34ft 0kts
05-Jan-20 13:26 45.582633 -122.567223 49 34ft 0kts
05-Jan-20 13:27 45.582633 -122.567223 49 34ft 0kts
05-Jan-20 13:28 45.582633 -122.567223 49 34ft 0kts
05-Jan-20 13:29 45.582633 -122.567223 49 34ft 0kts
05-Jan-20 13:30 45.582633 -122.567223 49 34ft 0kts
05-Jan-20 13:31 45.582633 -122.567223 49 34ft 0kts
05-Jan-20 13:32 45.582633 -122.567223 49 34ft 0kts
05-Jan-20 13:33 45.582633 -122.567223 49 34ft 0kts
05-Jan-20 13:34 45.582633 -122.567223 49 34ft 0kts
05-Jan-20 13:35 45.582633 -122.567223 49 34ft 0kts
05-Jan-20 13:36 45.582635 -122.567219 52 34ft 0kts
05-Jan-20 13:37 45.582635 -122.567219 52 34ft 0kts
05-Jan-20 13:38 45.582635 -122.567219 52 34ft 0kts
05-Jan-20 13:39 45.582635 -122.567219 52 34ft 0kts
05-Jan-20 13:40 45.582635 -122.567219 52 34ft 0kts
05-Jan-20 13:41 45.582635 -122.567219 52 34ft 0kts
05-Jan-20 13:42 45.582635 -122.567219 52 34ft 0kts
05-Jan-20 13:43 45.582717 -122.567156 19 34ft 2kts
05-Jan-20 13:44 45.588278 -122.576728 301 342ft 72kts
05-Jan-20 13:45 45.600921 -122.599310 299 1574ft 74kts
05-Jan-20 13:46 45.613184 -122.624179 297 2475ft 80kts
05-Jan-20 13:47 45.634563 -122.627915 4 3298ft 92kts
05-Jan-20 13:48 45.663170 -122.618860 5 3893ft 114kts
05-Jan-20 13:49 45.695269 -122.608530 5 4520ft 121kts
05-Jan-20 13:50 45.728736 -122.597790 3 5157ft 125kts
05-Jan-20 13:51 45.761968 -122.595912 337 5876ft 117kts
05-Jan-20 13:52 45.794138 -122.603321 334 6599ft 117kts
05-Jan-20 13:53 45.826119 -122.611133 332 7306ft 116kts
05-Jan-20 13:54 45.857775 -122.618994 330 8004ft 118kts
05-Jan-20 13:55 45.896102 -122.628751 337 8033ft 153kts
05-Jan-20 13:56 45.937046 -122.638685 337 8032ft 158kts
05-Jan-20 13:57 45.980330 -122.649356 336 8113ft 154kts
05-Jan-20 13:58 46.023346 -122.660170 337 8124ft 160kts
05-Jan-20 13:59 46.067824 -122.671335 337 8124ft 164kts
05-Jan-20 14:00 46.112442 -122.682527 337 8108ft 164kts
05-Jan-20 14:01 46.157533 -122.693842 337 8089ft 164kts
05-Jan-20 14:02 46.201408 -122.704872 336 8072ft 163kts
05-Jan-20 14:03 46.246300 -122.716206 336 8056ft 164kts
05-Jan-20 14:04 46.291076 -122.727519 337 8055ft 164kts
05-Jan-20 14:05 46.336009 -122.738840 337 8055ft 163kts
05-Jan-20 14:06 46.380635 -122.750219 337 8057ft 163kts
05-Jan-20 14:07 46.425028 -122.761545 338 8063ft 163kts
05-Jan-20 14:08 46.469588 -122.772821 338 8064ft 162kts
05-Jan-20 14:09 46.514136 -122.784163 338 8065ft 162kts
05-Jan-20 14:10 46.558532 -122.795491 338 8065ft 162kts
05-Jan-20 14:11 46.603236 -122.806917 338 8065ft 162kts
05-Jan-20 14:12 46.647723 -122.818316 338 8065ft 163kts
05-Jan-20 14:13 46.692410 -122.829773 338 8065ft 163kts
05-Jan-20 14:14 46.737137 -122.841259 338 8062ft 163kts
05-Jan-20 14:15 46.781874 -122.852764 338 8049ft 163kts
05-Jan-20 14:16 46.825986 -122.864112 337 8038ft 163kts
05-Jan-20 14:17 46.870585 -122.875655 338 8025ft 163kts
05-Jan-20 14:18 46.915164 -122.887167 338 8019ft 162kts
05-Jan-20 14:19 46.959752 -122.898791 337 8021ft 162kts
05-Jan-20 14:20 47.006357 -122.896907 355 8020ft 170kts
05-Jan-20 14:21 47.053720 -122.890635 357 8025ft 172kts
05-Jan-20 14:22 47.100610 -122.884160 358 8022ft 173kts
05-Jan-20 14:23 47.148322 -122.877740 355 8014ft 170kts
05-Jan-20 14:24 47.195585 -122.871355 357 8015ft 171kts
05-Jan-20 14:25 47.242941 -122.864806 354 8015ft 170kts
05-Jan-20 14:26 47.290619 -122.858186 358 8018ft 173kts
05-Jan-20 14:27 47.338407 -122.851542 357 8018ft 173kts
05-Jan-20 14:29 47.386325 -122.844880 355 8007ft 173kts
05-Jan-20 14:30 47.434290 -122.838360 357 7990ft 174kts
05-Jan-20 14:31 47.481843 -122.831762 356 7971ft 174kts
05-Jan-20 14:32 47.530356 -122.824978 356 7958ft 175kts
05-Jan-20 14:33 47.578940 -122.818228 356 7955ft 175kts
05-Jan-20 14:34 47.627435 -122.811541 356 7954ft 176kts
05-Jan-20 14:35 47.676202 -122.804674 357 7959ft 177kts
05-Jan-20 14:36 47.725306 -122.797859 357 7958ft 177kts
05-Jan-20 14:37 47.774337 -122.790948 356 7956ft 177kts
05-Jan-20 14:38 47.823533 -122.784151 356 7956ft 178kts
05-Jan-20 14:39 47.872802 -122.777142 358 7964ft 178kts
05-Jan-20 14:40 47.921567 -122.770316 356 7977ft 177kts
05-Jan-20 14:41 47.964543 -122.783998 318 7986ft 153kts
05-Jan-20 14:42 48.000970 -122.815486 314 7994ft 149kts
05-Jan-20 14:43 48.031826 -122.853235 282 7872ft 139kts
05-Jan-20 14:44 48.043252 -122.910089 274 7033ft 146kts
05-Jan-20 14:45 48.053208 -122.968729 274 6171ft 144kts
05-Jan-20 14:46 48.063220 -123.026266 275 5298ft 144kts
05-Jan-20 14:47 48.073044 -123.084907 278 4418ft 145kts
05-Jan-20 14:48 48.078475 -123.142241 251 3737ft 137kts
05-Jan-20 14:49 48.080486 -123.197438 273 3239ft 134kts
05-Jan-20 14:49 48.081621 -123.242967 266 2962ft 128kts
05-Jan-20 14:51 48.083675 -123.302544 284 2951ft 125kts
05-Jan-20 14:52 48.092731 -123.350643 280 2531ft 115kts
05-Jan-20 14:52 48.099368 -123.388363 278 1944ft 110kts
05-Jan-20 14:54 48.107989 -123.436692 279 1188ft 98kts
05-Jan-20 14:54 48.113792 -123.469794 283 669ft 101kts
05-Jan-20 14:55 48.118368 -123.496702 283 279ft 22kts
05-Jan-20 14:57 48.117180 -123.498114 284 280ft 8kts
05-Jan-20 14:57 48.117511 -123.501025 277 281ft 0kts
05-Jan-20 14:58 48.117511 -123.501026 277 281ft 0kts
05-Jan-20 15:00 48.117511 -123.501026 277 281ft 0kts

Navigation Log

Ident Type
Flight plan parsing failed, navigation log unavailable